KCBE/CBE METAR and TAF weather

Enter ICAO airport designator
Station Type Date Time Source
KCBE METAR 2021/09/25 12:35 UTC NOAA

KCBE 251235Z AUTO 00000KT M1/4SM FG OVC002 08/08 A3016 RMK AO2 T00810080


Station Type Date Time Source
KCBE Decoded METAR 2021/09/25 12:35 UTC NOAA

Cumberland, Greater Cumberland Regional Airport, MD, United States (KCBE) 39-36-55N 078-45-39W
Sep 25, 2021 - 08:35 AM EDT / 2021.09.25 1235 UTC
Wind: Calm:0
Visibility: less than 1/4 mile(s):1
Sky conditions: overcast
Weather: fog
Temperature: 46.6 F (8.1 C)
Dew Point: 46.4 F (8.0 C)
Relative Humidity: 99%
Pressure (altimeter): 30.16 in. Hg (1021 hPa)
ob: KCBE 251235Z AUTO 00000KT M1/4SM FG OVC002 08/08 A3016 RMK AO2 T00810080
cycle: 12

Station Type Date Time Source
KCBE TAF UTC NOAA

Error!

Example: see airport list